sensor_id;sensor_type;location;lat;lon;timestamp;pressure;altitude;pressure_sealevel;temperature;humidity
7264;BME280;3673;52.480;13.348;2023-05-11T00:02:23;100925.97;;;21.32;51.55
7264;BME280;3673;52.480;13.348;2023-05-11T00:04:50;100924.13;;;21.34;51.43
7264;BME280;3673;52.480;13.348;2023-05-11T00:07:17;100929.19;;;21.40;51.23
7264;BME280;3673;52.480;13.348;2023-05-11T00:09:45;100919.59;;;21.36;51.65
7264;BME280;3673;52.480;13.348;2023-05-11T00:12:12;100916.88;;;21.38;51.68
7264;BME280;3673;52.480;13.348;2023-05-11T00:14:39;100927.44;;;21.39;51.55
7264;BME280;3673;52.480;13.348;2023-05-11T00:17:06;100917.53;;;21.43;51.53
7264;BME280;3673;52.480;13.348;2023-05-11T00:19:33;100916.03;;;21.37;51.54
7264;BME280;3673;52.480;13.348;2023-05-11T00:22:00;100919.59;;;21.36;51.87
7264;BME280;3673;52.480;13.348;2023-05-11T00:24:27;100918.69;;;21.37;51.78
7264;BME280;3673;52.480;13.348;2023-05-11T00:26:55;100921.78;;;21.27;51.90
7264;BME280;3673;52.480;13.348;2023-05-11T00:29:22;100922.59;;;21.07;52.44
7264;BME280;3673;52.480;13.348;2023-05-11T00:31:48;100920.00;;;20.84;53.10
7264;BME280;3673;52.480;13.348;2023-05-11T00:34:16;100917.31;;;20.62;53.57
7264;BME280;3673;52.480;13.348;2023-05-11T00:36:43;100912.50;;;20.50;54.20
7264;BME280;3673;52.480;13.348;2023-05-11T00:39:10;100919.47;;;20.52;54.15
7264;BME280;3673;52.480;13.348;2023-05-11T00:41:38;100916.69;;;20.55;54.07
7264;BME280;3673;52.480;13.348;2023-05-11T00:44:06;100911.03;;;20.65;53.74
7264;BME280;3673;52.480;13.348;2023-05-11T00:46:33;100914.31;;;20.71;53.49
7264;BME280;3673;52.480;13.348;2023-05-11T00:49:00;100909.84;;;20.72;53.50
7264;BME280;3673;52.480;13.348;2023-05-11T00:51:27;100913.31;;;20.74;53.75
7264;BME280;3673;52.480;13.348;2023-05-11T00:53:54;100913.56;;;20.68;53.75
7264;BME280;3673;52.480;13.348;2023-05-11T00:56:21;100920.72;;;20.66;53.60
7264;BME280;3673;52.480;13.348;2023-05-11T00:58:48;100909.63;;;20.78;53.38
7264;BME280;3673;52.480;13.348;2023-05-11T01:01:16;100913.94;;;20.80;53.03
7264;BME280;3673;52.480;13.348;2023-05-11T01:03:43;100912.19;;;20.79;52.99
7264;BME280;3673;52.480;13.348;2023-05-11T01:06:16;100918.38;;;20.80;52.98
7264;BME280;3673;52.480;13.348;2023-05-11T01:08:54;100914.44;;;20.68;53.54
7264;BME280;3673;52.480;13.348;2023-05-11T01:11:29;100918.56;;;20.75;53.74
7264;BME280;3673;52.480;13.348;2023-05-11T01:14:05;100916.72;;;20.77;53.14
7264;BME280;3673;52.480;13.348;2023-05-11T01:16:39;100918.94;;;20.66;53.39
7264;BME280;3673;52.480;13.348;2023-05-11T01:19:17;100925.38;;;20.61;53.50
7264;BME280;3673;52.480;13.348;2023-05-11T01:21:46;100925.38;;;20.61;53.34
7264;BME280;3673;52.480;13.348;2023-05-11T01:24:36;100925.41;;;20.59;53.10
7264;BME280;3673;52.480;13.348;2023-05-11T01:27:42;100927.41;;;20.54;53.16
7264;BME280;3673;52.480;13.348;2023-05-11T01:30:28;100919.84;;;20.43;53.51
7264;BME280;3673;52.480;13.348;2023-05-11T01:33:00;100926.19;;;20.39;53.59
7264;BME280;3673;52.480;13.348;2023-05-11T01:35:32;100929.09;;;20.55;53.15
7264;BME280;3673;52.480;13.348;2023-05-11T01:38:03;100931.88;;;20.52;52.98
7264;BME280;3673;52.480;13.348;2023-05-11T01:40:33;100943.00;;;20.40;53.43
7264;BME280;3673;52.480;13.348;2023-05-11T01:43:04;100933.53;;;20.33;53.28
7264;BME280;3673;52.480;13.348;2023-05-11T01:45:39;100937.22;;;20.29;53.40
7264;BME280;3673;52.480;13.348;2023-05-11T01:48:13;100944.13;;;20.10;53.96
7264;BME280;3673;52.480;13.348;2023-05-11T01:50:42;100943.69;;;19.97;54.29
7264;BME280;3673;52.480;13.348;2023-05-11T01:53:10;100944.97;;;20.10;54.09
7264;BME280;3673;52.480;13.348;2023-05-11T01:55:38;100945.09;;;20.07;54.40
7264;BME280;3673;52.480;13.348;2023-05-11T01:58:09;100951.81;;;20.17;53.92
7264;BME280;3673;52.480;13.348;2023-05-11T02:00:38;100951.38;;;19.81;54.66
7264;BME280;3673;52.480;13.348;2023-05-11T02:03:06;100954.59;;;19.89;54.70
7264;BME280;3673;52.480;13.348;2023-05-11T02:05:35;100951.94;;;19.89;54.65
7264;BME280;3673;52.480;13.348;2023-05-11T02:08:05;100956.88;;;19.75;55.13
7264;BME280;3673;52.480;13.348;2023-05-11T02:10:33;100951.63;;;19.74;55.06
7264;BME280;3673;52.480;13.348;2023-05-11T02:13:02;100957.84;;;19.73;55.09
7264;BME280;3673;52.480;13.348;2023-05-11T02:15:30;100952.31;;;19.54;55.53
7264;BME280;3673;52.480;13.348;2023-05-11T02:18:00;100954.00;;;19.57;55.72
7264;BME280;3673;52.480;13.348;2023-05-11T02:20:28;100952.97;;;19.61;55.46
7264;BME280;3673;52.480;13.348;2023-05-11T02:22:56;100960.22;;;19.56;55.61
7264;BME280;3673;52.480;13.348;2023-05-11T02:25:24;100970.38;;;19.43;55.92
7264;BME280;3673;52.480;13.348;2023-05-11T02:27:52;100964.03;;;19.73;55.31
7264;BME280;3673;52.480;13.348;2023-05-11T02:30:19;100960.50;;;19.73;55.32
7264;BME280;3673;52.480;13.348;2023-05-11T02:32:49;100964.19;;;19.69;55.01
7264;BME280;3673;52.480;13.348;2023-05-11T02:35:23;100958.41;;;19.58;55.34
7264;BME280;3673;52.480;13.348;2023-05-11T02:37:55;100960.97;;;19.59;55.32
7264;BME280;3673;52.480;13.348;2023-05-11T02:40:28;100970.53;;;19.65;55.17
7264;BME280;3673;52.480;13.348;2023-05-11T02:42:59;100962.88;;;19.56;54.96
7264;BME280;3673;52.480;13.348;2023-05-11T02:45:30;100962.75;;;19.59;54.99
7264;BME280;3673;52.480;13.348;2023-05-11T02:48:00;100964.81;;;19.50;54.81
7264;BME280;3673;52.480;13.348;2023-05-11T02:50:36;100968.53;;;19.45;54.64
7264;BME280;3673;52.480;13.348;2023-05-11T02:53:07;100965.16;;;19.40;54.22
7264;BME280;3673;52.480;13.348;2023-05-11T02:55:36;100965.84;;;19.46;53.75
7264;BME280;3673;52.480;13.348;2023-05-11T02:58:03;100970.13;;;19.50;53.57
7264;BME280;3673;52.480;13.348;2023-05-11T03:00:30;100970.91;;;19.26;53.47
7264;BME280;3673;52.480;13.348;2023-05-11T03:02:57;100968.91;;;19.33;53.53
7264;BME280;3673;52.480;13.348;2023-05-11T03:05:24;100972.91;;;19.20;53.26
7264;BME280;3673;52.480;13.348;2023-05-11T03:07:57;100969.47;;;19.16;53.45
7264;BME280;3673;52.480;13.348;2023-05-11T03:10:25;100972.59;;;19.29;52.81
7264;BME280;3673;52.480;13.348;2023-05-11T03:12:53;100968.28;;;19.25;52.63
7264;BME280;3673;52.480;13.348;2023-05-11T03:15:21;100973.47;;;19.29;52.01
7264;BME280;3673;52.480;13.348;2023-05-11T03:17:49;100971.06;;;19.22;51.36
7264;BME280;3673;52.480;13.348;2023-05-11T03:20:18;100971.88;;;19.24;51.36
7264;BME280;3673;52.480;13.348;2023-05-11T03:22:46;100967.84;;;19.12;51.49
7264;BME280;3673;52.480;13.348;2023-05-11T03:25:16;100972.94;;;19.18;51.16
7264;BME280;3673;52.480;13.348;2023-05-11T03:27:44;100966.47;;;19.00;50.88
7264;BME280;3673;52.480;13.348;2023-05-11T03:30:13;100976.66;;;19.13;51.23
7264;BME280;3673;52.480;13.348;2023-05-11T03:32:41;100973.41;;;19.05;51.08
7264;BME280;3673;52.480;13.348;2023-05-11T03:35:08;100967.16;;;19.06;51.02
7264;BME280;3673;52.480;13.348;2023-05-11T03:37:36;100967.34;;;19.01;50.98
7264;BME280;3673;52.480;13.348;2023-05-11T03:40:05;100967.25;;;19.02;50.82
7264;BME280;3673;52.480;13.348;2023-05-11T03:42:35;100976.13;;;19.01;50.90
7264;BME280;3673;52.480;13.348;2023-05-11T03:45:06;100977.88;;;19.02;50.86
7264;BME280;3673;52.480;13.348;2023-05-11T03:47:35;100979.66;;;19.02;50.80
7264;BME280;3673;52.480;13.348;2023-05-11T03:50:07;100974.44;;;18.99;50.71
7264;BME280;3673;52.480;13.348;2023-05-11T03:52:35;100972.88;;;18.93;50.52
7264;BME280;3673;52.480;13.348;2023-05-11T03:55:03;100976.59;;;18.88;50.22
7264;BME280;3673;52.480;13.348;2023-05-11T03:57:30;100977.97;;;18.99;50.03
7264;BME280;3673;52.480;13.348;2023-05-11T03:59:58;100978.19;;;19.20;49.51
7264;BME280;3673;52.480;13.348;2023-05-11T04:02:25;100975.66;;;18.89;49.98
7264;BME280;3673;52.480;13.348;2023-05-11T04:04:51;100982.81;;;18.87;49.69
7264;BME280;3673;52.480;13.348;2023-05-11T04:07:18;100976.91;;;18.77;49.84
7264;BME280;3673;52.480;13.348;2023-05-11T04:09:46;100982.13;;;18.80;49.68
7264;BME280;3673;52.480;13.348;2023-05-11T04:12:12;100979.06;;;18.92;49.12
7264;BME280;3673;52.480;13.348;2023-05-11T04:14:39;100990.88;;;18.82;49.38
7264;BME280;3673;52.480;13.348;2023-05-11T04:17:07;100985.28;;;18.91;49.13
7264;BME280;3673;52.480;13.348;2023-05-11T04:19:34;100988.47;;;19.02;48.67
7264;BME280;3673;52.480;13.348;2023-05-11T04:22:01;100987.19;;;18.88;48.80
7264;BME280;3673;52.480;13.348;2023-05-11T04:24:28;100985.06;;;18.71;48.94
7264;BME280;3673;52.480;13.348;2023-05-11T04:26:55;100995.16;;;18.88;48.75
7264;BME280;3673;52.480;13.348;2023-05-11T04:29:22;100985.25;;;18.93;48.62
7264;BME280;3673;52.480;13.348;2023-05-11T04:31:49;100995.16;;;18.88;48.62
7264;BME280;3673;52.480;13.348;2023-05-11T04:34:17;100989.31;;;19.05;47.97
7264;BME280;3673;52.480;13.348;2023-05-11T04:36:46;100991.69;;;19.12;47.54
7264;BME280;3673;52.480;13.348;2023-05-11T04:39:13;100989.16;;;19.09;47.40
7264;BME280;3673;52.480;13.348;2023-05-11T04:41:41;100996.13;;;19.12;47.34
7264;BME280;3673;52.480;13.348;2023-05-11T04:44:08;101005.84;;;19.13;47.28
7264;BME280;3673;52.480;13.348;2023-05-11T04:46:35;101003.19;;;19.13;47.33
7264;BME280;3673;52.480;13.348;2023-05-11T04:49:03;101002.94;;;19.20;47.09
7264;BME280;3673;52.480;13.348;2023-05-11T04:51:31;101006.47;;;19.21;47.20
7264;BME280;3673;52.480;13.348;2023-05-11T04:53:58;101008.97;;;19.25;46.68
7264;BME280;3673;52.480;13.348;2023-05-11T04:56:25;101008.25;;;19.48;46.48
7264;BME280;3673;52.480;13.348;2023-05-11T04:58:51;101014.59;;;19.44;46.58
7264;BME280;3673;52.480;13.348;2023-05-11T05:01:18;101018.09;;;19.17;47.17
7264;BME280;3673;52.480;13.348;2023-05-11T05:03:47;101006.88;;;19.35;47.27
7264;BME280;3673;52.480;13.348;2023-05-11T05:06:15;101015.91;;;19.57;46.54
7264;BME280;3673;52.480;13.348;2023-05-11T05:08:43;101015.94;;;19.56;46.42
7264;BME280;3673;52.480;13.348;2023-05-11T05:11:10;101018.31;;;19.65;46.04
7264;BME280;3673;52.480;13.348;2023-05-11T05:13:36;101008.66;;;19.62;46.33
7264;BME280;3673;52.480;13.348;2023-05-11T05:16:04;101011.38;;;19.85;45.63
7264;BME280;3673;52.480;13.348;2023-05-11T05:18:30;101013.56;;;19.74;45.61
7264;BME280;3673;52.480;13.348;2023-05-11T05:20:58;101011.44;;;19.84;45.65
7264;BME280;3673;52.480;13.348;2023-05-11T05:23:24;101012.31;;;19.84;45.65
7264;BME280;3673;52.480;13.348;2023-05-11T05:25:53;101020.84;;;19.94;45.29
7264;BME280;3673;52.480;13.348;2023-05-11T05:28:20;101008.09;;;20.03;44.90
7264;BME280;3673;52.480;13.348;2023-05-11T05:30:46;101022.78;;;20.14;44.69
7264;BME280;3673;52.480;13.348;2023-05-11T05:33:13;101015.31;;;20.00;44.85
7264;BME280;3673;52.480;13.348;2023-05-11T05:35:40;101018.81;;;20.25;44.47
7264;BME280;3673;52.480;13.348;2023-05-11T05:38:08;101007.53;;;20.19;44.62
7264;BME280;3673;52.480;13.348;2023-05-11T05:40:35;101016.56;;;20.15;44.42
7264;BME280;3673;52.480;13.348;2023-05-11T05:43:05;101025.75;;;20.31;44.05
7264;BME280;3673;52.480;13.348;2023-05-11T05:45:32;101024.91;;;20.29;44.14
7264;BME280;3673;52.480;13.348;2023-05-11T05:47:59;101030.38;;;20.49;43.67
7264;BME280;3673;52.480;13.348;2023-05-11T05:50:26;101036.41;;;20.77;43.04
7264;BME280;3673;52.480;13.348;2023-05-11T05:52:53;101029.63;;;20.69;43.25
7264;BME280;3673;52.480;13.348;2023-05-11T05:55:20;101034.50;;;20.81;42.84
7264;BME280;3673;52.480;13.348;2023-05-11T05:57:48;101044.38;;;20.77;42.55
7264;BME280;3673;52.480;13.348;2023-05-11T06:00:17;101047.13;;;20.97;42.07
7264;BME280;3673;52.480;13.348;2023-05-11T06:02:44;101045.84;;;21.08;41.34
7264;BME280;3673;52.480;13.348;2023-05-11T06:05:11;101048.00;;;20.98;41.47
7264;BME280;3673;52.480;13.348;2023-05-11T06:07:38;101057.22;;;21.34;40.78
7264;BME280;3673;52.480;13.348;2023-05-11T06:10:05;101038.81;;;21.05;41.23
7264;BME280;3673;52.480;13.348;2023-05-11T06:12:32;101049.84;;;21.19;40.84
7264;BME280;3673;52.480;13.348;2023-05-11T06:14:59;101045.69;;;21.55;40.15
7264;BME280;3673;52.480;13.348;2023-05-11T06:17:27;101047.38;;;21.15;40.54
7264;BME280;3673;52.480;13.348;2023-05-11T06:19:54;101054.50;;;21.58;40.02
7264;BME280;3673;52.480;13.348;2023-05-11T06:22:21;101048.00;;;21.65;39.62
7264;BME280;3673;52.480;13.348;2023-05-11T06:24:48;101050.28;;;21.30;39.69
7264;BME280;3673;52.480;13.348;2023-05-11T06:27:15;101055.53;;;21.53;39.37
7264;BME280;3673;52.480;13.348;2023-05-11T06:29:42;101057.13;;;21.79;38.82
7264;BME280;3673;52.480;13.348;2023-05-11T06:32:09;101053.16;;;21.89;38.56
7264;BME280;3673;52.480;13.348;2023-05-11T06:34:37;101050.78;;;21.82;38.33
7264;BME280;3673;52.480;13.348;2023-05-11T06:37:04;101046.13;;;21.45;38.73
7264;BME280;3673;52.480;13.348;2023-05-11T06:39:34;101049.44;;;21.72;38.67
7264;BME280;3673;52.480;13.348;2023-05-11T06:42:02;101055.81;;;21.89;38.04
7264;BME280;3673;52.480;13.348;2023-05-11T06:44:29;101052.56;;;22.23;37.63
7264;BME280;3673;52.480;13.348;2023-05-11T06:46:56;101060.25;;;22.31;37.10
7264;BME280;3673;52.480;13.348;2023-05-11T06:49:24;101056.69;;;22.50;36.84
7264;BME280;3673;52.480;13.348;2023-05-11T06:51:52;101059.66;;;22.63;36.98
7264;BME280;3673;52.480;13.348;2023-05-11T06:54:19;101055.88;;;22.48;37.05
7264;BME280;3673;52.480;13.348;2023-05-11T06:56:45;101050.91;;;22.41;37.29
7264;BME280;3673;52.480;13.348;2023-05-11T06:59:13;101053.44;;;22.24;37.36
7264;BME280;3673;52.480;13.348;2023-05-11T07:01:39;101047.56;;;22.36;36.98
7264;BME280;3673;52.480;13.348;2023-05-11T07:04:06;101052.53;;;22.64;36.85
7264;BME280;3673;52.480;13.348;2023-05-11T07:06:33;101056.13;;;22.63;36.82
7264;BME280;3673;52.480;13.348;2023-05-11T07:09:02;101050.38;;;22.33;37.00
7264;BME280;3673;52.480;13.348;2023-05-11T07:11:31;101053.88;;;22.53;36.82
7264;BME280;3673;52.480;13.348;2023-05-11T07:13:58;101047.03;;;22.68;36.37
7264;BME280;3673;52.480;13.348;2023-05-11T07:16:25;101046.09;;;22.88;36.14
7264;BME280;3673;52.480;13.348;2023-05-11T07:18:52;101049.69;;;22.87;35.84
7264;BME280;3673;52.480;13.348;2023-05-11T07:21:19;101055.09;;;22.85;35.94
7264;BME280;3673;52.480;13.348;2023-05-11T07:23:47;101052.84;;;23.32;35.48
7264;BME280;3673;52.480;13.348;2023-05-11T07:26:15;101052.38;;;23.60;34.92
7264;BME280;3673;52.480;13.348;2023-05-11T07:28:42;101049.19;;;23.71;34.55
7264;BME280;3673;52.480;13.348;2023-05-11T07:31:08;101052.56;;;23.74;34.48
7264;BME280;3673;52.480;13.348;2023-05-11T07:33:36;101055.94;;;23.78;34.51
7264;BME280;3673;52.480;13.348;2023-05-11T07:36:04;101053.53;;;24.07;34.14
7264;BME280;3673;52.480;13.348;2023-05-11T07:38:32;101050.16;;;24.21;33.58
7264;BME280;3673;52.480;13.348;2023-05-11T07:40:59;101053.28;;;24.12;33.61
7264;BME280;3673;52.480;13.348;2023-05-11T07:43:27;101046.06;;;24.14;34.00
7264;BME280;3673;52.480;13.348;2023-05-11T07:45:53;101049.28;;;24.21;33.39
7264;BME280;3673;52.480;13.348;2023-05-11T07:48:20;101047.22;;;24.26;33.41
7264;BME280;3673;52.480;13.348;2023-05-11T07:50:47;101046.53;;;24.05;33.23
7264;BME280;3673;52.480;13.348;2023-05-11T07:53:15;101045.16;;;24.15;33.66
7264;BME280;3673;52.480;13.348;2023-05-11T07:55:42;101049.03;;;23.91;33.89
7264;BME280;3673;52.480;13.348;2023-05-11T07:58:08;101050.81;;;24.42;33.32
7264;BME280;3673;52.480;13.348;2023-05-11T08:00:37;101046.75;;;23.83;34.06
7264;BME280;3673;52.480;13.348;2023-05-11T08:03:03;101051.44;;;24.47;33.64
7264;BME280;3673;52.480;13.348;2023-05-11T08:05:30;101041.91;;;24.91;33.28
7264;BME280;3673;52.480;13.348;2023-05-11T08:08:02;101046.41;;;24.74;32.58
7264;BME280;3673;52.480;13.348;2023-05-11T08:10:29;101050.97;;;25.04;31.69
7264;BME280;3673;52.480;13.348;2023-05-11T08:12:56;101045.28;;;24.95;31.81
7264;BME280;3673;52.480;13.348;2023-05-11T08:15:23;101047.34;;;25.05;31.64
7264;BME280;3673;52.480;13.348;2023-05-11T08:17:52;101041.72;;;25.41;30.73
7264;BME280;3673;52.480;13.348;2023-05-11T08:20:19;101046.72;;;25.47;30.59
7264;BME280;3673;52.480;13.348;2023-05-11T08:22:45;101048.66;;;25.14;30.93
7264;BME280;3673;52.480;13.348;2023-05-11T08:25:12;101043.72;;;24.91;30.96
7264;BME280;3673;52.480;13.348;2023-05-11T08:27:39;101045.47;;;25.07;31.35
7264;BME280;3673;52.480;13.348;2023-05-11T08:30:07;101044.66;;;25.37;30.47
7264;BME280;3673;52.480;13.348;2023-05-11T08:32:34;101040.94;;;25.39;30.69
7264;BME280;3673;52.480;13.348;2023-05-11T08:35:03;101039.75;;;25.45;30.84
7264;BME280;3673;52.480;13.348;2023-05-11T08:37:30;101042.88;;;25.83;30.35
7264;BME280;3673;52.480;13.348;2023-05-11T08:39:57;101035.31;;;25.89;30.42
7264;BME280;3673;52.480;13.348;2023-05-11T08:42:24;101036.06;;;25.77;30.27
7264;BME280;3673;52.480;13.348;2023-05-11T08:44:55;101043.09;;;25.33;30.96
7264;BME280;3673;52.480;13.348;2023-05-11T08:47:23;101033.44;;;25.62;30.48
7264;BME280;3673;52.480;13.348;2023-05-11T08:49:53;101038.28;;;25.85;29.96
7264;BME280;3673;52.480;13.348;2023-05-11T08:52:25;101026.06;;;25.95;30.09
7264;BME280;3673;52.480;13.348;2023-05-11T08:54:52;101029.97;;;26.33;29.45
7264;BME280;3673;52.480;13.348;2023-05-11T08:57:19;101028.09;;;26.35;29.24
7264;BME280;3673;52.480;13.348;2023-05-11T08:59:46;101033.63;;;26.32;29.19
7264;BME280;3673;52.480;13.348;2023-05-11T09:02:17;101036.50;;;26.43;28.99
7264;BME280;3673;52.480;13.348;2023-05-11T09:04:45;101033.72;;;26.73;28.60
7264;BME280;3673;52.480;13.348;2023-05-11T09:07:14;101027.09;;;27.07;28.37
7264;BME280;3673;52.480;13.348;2023-05-11T09:09:44;101021.56;;;26.68;27.63
7264;BME280;3673;52.480;13.348;2023-05-11T09:12:11;101033.63;;;26.46;27.64
7264;BME280;3673;52.480;13.348;2023-05-11T09:14:38;101021.00;;;26.91;27.45
7264;BME280;3673;52.480;13.348;2023-05-11T09:17:05;101025.78;;;26.72;27.69
7264;BME280;3673;52.480;13.348;2023-05-11T09:19:32;101020.38;;;27.41;27.20
7264;BME280;3673;52.480;13.348;2023-05-11T09:21:59;101024.72;;;26.46;27.60
7264;BME280;3673;52.480;13.348;2023-05-11T09:24:27;101026.25;;;26.50;27.60
7264;BME280;3673;52.480;13.348;2023-05-11T09:27:08;101023.44;;;27.49;26.65
7264;BME280;3673;52.480;13.348;2023-05-11T09:29:35;101021.56;;;27.23;26.59
7264;BME280;3673;52.480;13.348;2023-05-11T09:32:03;101014.75;;;27.31;25.90
7264;BME280;3673;52.480;13.348;2023-05-11T09:34:30;101022.88;;;27.71;25.76
7264;BME280;3673;52.480;13.348;2023-05-11T09:36:56;101029.16;;;27.57;25.19
7264;BME280;3673;52.480;13.348;2023-05-11T09:39:30;101035.22;;;27.05;25.87
7264;BME280;3673;52.480;13.348;2023-05-11T09:42:16;101018.38;;;27.44;25.66
7264;BME280;3673;52.480;13.348;2023-05-11T09:44:45;101020.34;;;27.55;25.70
7264;BME280;3673;52.480;13.348;2023-05-11T09:47:13;101020.06;;;28.24;24.82
7264;BME280;3673;52.480;13.348;2023-05-11T09:49:41;101023.50;;;28.64;24.59
7264;BME280;3673;52.480;13.348;2023-05-11T09:52:09;101025.31;;;28.26;24.64
7264;BME280;3673;52.480;13.348;2023-05-11T09:54:41;101016.09;;;28.17;24.72
7264;BME280;3673;52.480;13.348;2023-05-11T09:57:23;101013.78;;;28.87;24.08
7264;BME280;3673;52.480;13.348;2023-05-11T09:59:50;101008.75;;;29.42;23.62
7264;BME280;3673;52.480;13.348;2023-05-11T10:02:20;101006.88;;;28.83;24.44
7264;BME280;3673;52.480;13.348;2023-05-11T10:04:47;101010.41;;;29.56;23.52
7264;BME280;3673;52.480;13.348;2023-05-11T10:07:28;101019.03;;;29.96;22.41
7264;BME280;3673;52.480;13.348;2023-05-11T10:09:56;101011.31;;;29.68;23.03
7264;BME280;3673;52.480;13.348;2023-05-11T10:12:26;101012.53;;;29.63;23.19
7264;BME280;3673;52.480;13.348;2023-05-11T10:14:59;101002.66;;;30.10;23.16
7264;BME280;3673;52.480;13.348;2023-05-11T10:17:27;101006.53;;;30.74;22.11
7264;BME280;3673;52.480;13.348;2023-05-11T10:19:56;101002.16;;;30.16;22.18
7264;BME280;3673;52.480;13.348;2023-05-11T10:22:24;101017.59;;;30.82;21.71
7264;BME280;3673;52.480;13.348;2023-05-11T10:24:52;101005.44;;;30.66;21.16
7264;BME280;3673;52.480;13.348;2023-05-11T10:27:20;101009.22;;;31.07;20.68
7264;BME280;3673;52.480;13.348;2023-05-11T10:29:49;100997.91;;;30.91;20.57
7264;BME280;3673;52.480;13.348;2023-05-11T10:32:18;100996.97;;;30.59;20.71
7264;BME280;3673;52.480;13.348;2023-05-11T10:34:46;100997.81;;;30.82;20.77
7264;BME280;3673;52.480;13.348;2023-05-11T10:37:15;100985.47;;;31.22;20.05
7264;BME280;3673;52.480;13.348;2023-05-11T10:39:43;100988.22;;;31.95;18.97
7264;BME280;3673;52.480;13.348;2023-05-11T10:42:29;100984.19;;;31.90;19.07
7264;BME280;3673;52.480;13.348;2023-05-11T10:45:25;100991.22;;;31.29;19.96
7264;BME280;3673;52.480;13.348;2023-05-11T10:48:20;100996.56;;;32.24;19.20
7264;BME280;3673;52.480;13.348;2023-05-11T10:51:04;100982.88;;;31.84;19.32
7264;BME280;3673;52.480;13.348;2023-05-11T10:53:53;100989.47;;;31.91;19.41
7264;BME280;3673;52.480;13.348;2023-05-11T10:56:48;100999.38;;;30.95;20.63
7264;BME280;3673;52.480;13.348;2023-05-11T11:02:37;100986.84;;;30.83;21.01
7264;BME280;3673;52.480;13.348;2023-05-11T11:05:05;100977.22;;;32.08;19.77
7264;BME280;3673;52.480;13.348;2023-05-11T11:07:59;100981.47;;;31.37;20.05
7264;BME280;3673;52.480;13.348;2023-05-11T11:10:30;100988.63;;;30.62;20.63
7264;BME280;3673;52.480;13.348;2023-05-11T11:13:03;100982.94;;;31.52;19.98
7264;BME280;3673;52.480;13.348;2023-05-11T11:16:08;100986.28;;;30.57;20.81
7264;BME280;3673;52.480;13.348;2023-05-11T11:18:36;100986.91;;;29.34;22.17
7264;BME280;3673;52.480;13.348;2023-05-11T11:21:03;100992.00;;;29.26;22.58
7264;BME280;3673;52.480;13.348;2023-05-11T11:23:46;100995.06;;;28.85;22.63
7264;BME280;3673;52.480;13.348;2023-05-11T11:26:17;100976.03;;;29.71;21.42
7264;BME280;3673;52.480;13.348;2023-05-11T11:29:11;100982.91;;;30.87;21.09
7264;BME280;3673;52.480;13.348;2023-05-11T11:31:39;100980.88;;;31.86;19.16
7264;BME280;3673;52.480;13.348;2023-05-11T11:34:36;100975.47;;;32.28;18.04
7264;BME280;3673;52.480;13.348;2023-05-11T11:37:06;100971.31;;;32.03;18.65
7264;BME280;3673;52.480;13.348;2023-05-11T11:39:49;100977.59;;;32.54;18.21
7264;BME280;3673;52.480;13.348;2023-05-11T11:42:32;100983.44;;;31.35;18.97
7264;BME280;3673;52.480;13.348;2023-05-11T11:45:25;100983.81;;;30.54;20.51
7264;BME280;3673;52.480;13.348;2023-05-11T11:48:07;100980.94;;;29.66;21.38
7264;BME280;3673;52.480;13.348;2023-05-11T11:50:41;100981.84;;;29.30;21.30
7264;BME280;3673;52.480;13.348;2023-05-11T11:55:54;100985.75;;;29.49;21.43
7264;BME280;3673;52.480;13.348;2023-05-11T11:58:56;100987.00;;;29.33;21.31
7264;BME280;3673;52.480;13.348;2023-05-11T12:01:33;100991.28;;;30.29;20.13
7264;BME280;3673;52.480;13.348;2023-05-11T12:04:50;100989.81;;;30.91;19.13
7264;BME280;3673;52.480;13.348;2023-05-11T12:07:24;100985.00;;;30.95;19.11
7264;BME280;3673;52.480;13.348;2023-05-11T12:10:02;100983.81;;;29.86;19.52
7264;BME280;3673;52.480;13.348;2023-05-11T12:12:29;100986.84;;;29.47;20.25
7264;BME280;3673;52.480;13.348;2023-05-11T12:14:56;100987.03;;;29.91;20.13
7264;BME280;3673;52.480;13.348;2023-05-11T12:17:26;100987.53;;;29.85;20.03
7264;BME280;3673;52.480;13.348;2023-05-11T12:19:54;100992.19;;;29.36;20.47
7264;BME280;3673;52.480;13.348;2023-05-11T12:22:24;101000.16;;;29.01;20.86
7264;BME280;3673;52.480;13.348;2023-05-11T12:24:54;100996.59;;;28.51;21.61
7264;BME280;3673;52.480;13.348;2023-05-11T12:27:22;100992.38;;;29.09;21.06
7264;BME280;3673;52.480;13.348;2023-05-11T12:29:50;100996.13;;;28.83;21.31
7264;BME280;3673;52.480;13.348;2023-05-11T12:32:25;100997.44;;;28.39;21.08
7264;BME280;3673;52.480;13.348;2023-05-11T12:35:00;100995.31;;;28.44;20.94
7264;BME280;3673;52.480;13.348;2023-05-11T12:37:30;100988.06;;;28.57;20.97
7264;BME280;3673;52.480;13.348;2023-05-11T12:39:58;100997.06;;;28.94;20.65
7264;BME280;3673;52.480;13.348;2023-05-11T12:42:25;100994.19;;;28.59;20.95
7264;BME280;3673;52.480;13.348;2023-05-11T12:44:53;100992.25;;;28.49;20.88
7264;BME280;3673;52.480;13.348;2023-05-11T12:47:21;100996.38;;;28.29;21.35
7264;BME280;3673;52.480;13.348;2023-05-11T12:49:48;100991.44;;;28.48;21.16
7264;BME280;3673;52.480;13.348;2023-05-11T12:52:15;101000.34;;;28.61;20.91
7264;BME280;3673;52.480;13.348;2023-05-11T12:54:49;100994.22;;;28.47;20.28
7264;BME280;3673;52.480;13.348;2023-05-11T12:57:24;100991.31;;;28.75;20.83
7264;BME280;3673;52.480;13.348;2023-05-11T13:00:06;100998.97;;;28.69;21.13
7264;BME280;3673;52.480;13.348;2023-05-11T13:02:34;100999.22;;;29.02;21.19
7264;BME280;3673;52.480;13.348;2023-05-11T13:05:09;100989.44;;;28.88;21.18
7264;BME280;3673;52.480;13.348;2023-05-11T13:07:37;100998.28;;;29.14;20.49
7264;BME280;3673;52.480;13.348;2023-05-11T13:10:07;100990.31;;;29.12;20.39
7264;BME280;3673;52.480;13.348;2023-05-11T13:12:33;100996.09;;;29.55;19.87
7264;BME280;3673;52.480;13.348;2023-05-11T13:15:06;100988.56;;;29.48;19.79
7264;BME280;3673;52.480;13.348;2023-05-11T13:17:36;100992.75;;;29.52;19.60
7264;BME280;3673;52.480;13.348;2023-05-11T13:20:17;100983.06;;;29.26;19.37
7264;BME280;3673;52.480;13.348;2023-05-11T13:22:45;100980.59;;;29.46;19.83